sensor_id;sensor_type;location;lat;lon;timestamp;P1;durP1;ratioP1;P2;durP2;ratioP2
43646;SDS011;56152;49.996;18.980;2022-09-01T00:00:06;9.32;;;4.00;;
43646;SDS011;56152;49.996;18.980;2022-09-01T00:05:12;10.02;;;5.13;;
43646;SDS011;56152;49.996;18.980;2022-09-01T00:10:18;12.35;;;5.93;;
43646;SDS011;56152;49.996;18.980;2022-09-01T00:15:23;12.35;;;5.35;;
43646;SDS011;56152;49.996;18.980;2022-09-01T00:20:27;11.35;;;5.70;;
43646;SDS011;56152;49.996;18.980;2022-09-01T00:25:32;8.20;;;4.75;;
43646;SDS011;56152;49.996;18.980;2022-09-01T00:30:36;10.80;;;5.50;;
43646;SDS011;56152;49.996;18.980;2022-09-01T00:35:40;8.23;;;4.55;;
43646;SDS011;56152;49.996;18.980;2022-09-01T00:40:45;11.32;;;4.57;;
43646;SDS011;56152;49.996;18.980;2022-09-01T00:45:51;9.68;;;4.68;;
43646;SDS011;56152;49.996;18.980;2022-09-01T00:50:54;7.30;;;4.30;;
43646;SDS011;56152;49.996;18.980;2022-09-01T00:55:57;8.50;;;3.78;;
43646;SDS011;56152;49.996;18.980;2022-09-01T01:01:12;12.55;;;4.40;;
43646;SDS011;56152;49.996;18.980;2022-09-01T01:06:14;9.05;;;4.55;;
43646;SDS011;56152;49.996;18.980;2022-09-01T01:11:18;9.02;;;5.13;;
43646;SDS011;56152;49.996;18.980;2022-09-01T01:16:23;7.88;;;4.05;;
43646;SDS011;56152;49.996;18.980;2022-09-01T01:21:32;10.43;;;4.63;;
43646;SDS011;56152;49.996;18.980;2022-09-01T01:26:59;9.35;;;4.97;;
43646;SDS011;56152;49.996;18.980;2022-09-01T01:32:05;9.13;;;4.20;;
43646;SDS011;56152;49.996;18.980;2022-09-01T01:37:12;7.03;;;3.95;;
43646;SDS011;56152;49.996;18.980;2022-09-01T01:42:17;10.15;;;4.60;;
43646;SDS011;56152;49.996;18.980;2022-09-01T01:47:19;6.45;;;3.80;;
43646;SDS011;56152;49.996;18.980;2022-09-01T01:52:21;7.95;;;4.28;;
43646;SDS011;56152;49.996;18.980;2022-09-01T01:57:26;7.53;;;4.55;;
43646;SDS011;56152;49.996;18.980;2022-09-01T02:02:31;8.77;;;5.10;;
43646;SDS011;56152;49.996;18.980;2022-09-01T02:07:34;8.95;;;3.80;;
43646;SDS011;56152;49.996;18.980;2022-09-01T02:12:39;8.38;;;4.82;;
43646;SDS011;56152;49.996;18.980;2022-09-01T02:17:42;9.18;;;3.80;;
43646;SDS011;56152;49.996;18.980;2022-09-01T02:22:45;8.35;;;3.97;;
43646;SDS011;56152;49.996;18.980;2022-09-01T02:27:53;5.18;;;3.30;;
43646;SDS011;56152;49.996;18.980;2022-09-01T02:32:55;7.20;;;3.53;;
43646;SDS011;56152;49.996;18.980;2022-09-01T02:37:59;5.38;;;3.10;;
43646;SDS011;56152;49.996;18.980;2022-09-01T02:43:06;10.95;;;3.63;;
43646;SDS011;56152;49.996;18.980;2022-09-01T02:48:11;6.88;;;3.35;;
43646;SDS011;56152;49.996;18.980;2022-09-01T02:53:15;5.35;;;3.10;;
43646;SDS011;56152;49.996;18.980;2022-09-01T02:58:21;7.25;;;3.47;;
43646;SDS011;56152;49.996;18.980;2022-09-01T03:03:24;9.82;;;3.58;;
43646;SDS011;56152;49.996;18.980;2022-09-01T03:08:29;6.75;;;3.90;;
43646;SDS011;56152;49.996;18.980;2022-09-01T03:13:37;9.30;;;4.18;;
43646;SDS011;56152;49.996;18.980;2022-09-01T03:18:41;10.05;;;4.20;;
43646;SDS011;56152;49.996;18.980;2022-09-01T03:23:47;11.35;;;5.00;;
43646;SDS011;56152;49.996;18.980;2022-09-01T03:28:53;12.77;;;5.05;;
43646;SDS011;56152;49.996;18.980;2022-09-01T03:33:57;10.75;;;5.10;;
43646;SDS011;56152;49.996;18.980;2022-09-01T03:39:00;8.40;;;3.47;;
43646;SDS011;56152;49.996;18.980;2022-09-01T03:44:06;9.38;;;3.33;;
43646;SDS011;56152;49.996;18.980;2022-09-01T03:49:11;5.55;;;3.13;;
43646;SDS011;56152;49.996;18.980;2022-09-01T03:54:14;7.72;;;3.45;;
43646;SDS011;56152;49.996;18.980;2022-09-01T03:59:19;6.07;;;3.30;;
43646;SDS011;56152;49.996;18.980;2022-09-01T04:04:24;7.43;;;3.20;;
43646;SDS011;56152;49.996;18.980;2022-09-01T04:09:31;4.30;;;2.47;;
43646;SDS011;56152;49.996;18.980;2022-09-01T04:14:40;5.15;;;2.72;;
43646;SDS011;56152;49.996;18.980;2022-09-01T04:19:43;5.25;;;2.90;;
43646;SDS011;56152;49.996;18.980;2022-09-01T04:24:47;3.92;;;2.42;;
43646;SDS011;56152;49.996;18.980;2022-09-01T04:29:51;7.53;;;3.15;;
43646;SDS011;56152;49.996;18.980;2022-09-01T04:34:56;5.43;;;2.63;;
43646;SDS011;56152;49.996;18.980;2022-09-01T04:39:59;5.28;;;3.13;;
43646;SDS011;56152;49.996;18.980;2022-09-01T04:45:06;4.32;;;2.40;;
43646;SDS011;56152;49.996;18.980;2022-09-01T04:50:10;8.23;;;3.30;;
43646;SDS011;56152;49.996;18.980;2022-09-01T04:55:16;3.70;;;2.30;;
43646;SDS011;56152;49.996;18.980;2022-09-01T05:00:22;5.05;;;2.35;;
43646;SDS011;56152;49.996;18.980;2022-09-01T05:05:35;6.53;;;2.90;;
43646;SDS011;56152;49.996;18.980;2022-09-01T05:10:42;6.43;;;2.63;;
43646;SDS011;56152;49.996;18.980;2022-09-01T05:16:00;4.68;;;2.25;;
43646;SDS011;56152;49.996;18.980;2022-09-01T05:21:05;7.25;;;2.20;;
43646;SDS011;56152;49.996;18.980;2022-09-01T05:26:11;3.88;;;2.30;;
43646;SDS011;56152;49.996;18.980;2022-09-01T05:36:37;6.72;;;3.05;;
43646;SDS011;56152;49.996;18.980;2022-09-01T05:41:46;4.32;;;2.47;;
43646;SDS011;56152;49.996;18.980;2022-09-01T05:52:13;5.90;;;2.60;;
43646;SDS011;56152;49.996;18.980;2022-09-01T05:57:15;9.18;;;2.80;;
43646;SDS011;56152;49.996;18.980;2022-09-01T06:02:24;10.25;;;3.08;;
43646;SDS011;56152;49.996;18.980;2022-09-01T06:07:28;5.72;;;2.88;;
43646;SDS011;56152;49.996;18.980;2022-09-01T06:12:34;4.95;;;2.67;;
43646;SDS011;56152;49.996;18.980;2022-09-01T06:17:45;8.88;;;3.40;;
43646;SDS011;56152;49.996;18.980;2022-09-01T06:22:48;6.82;;;2.42;;
43646;SDS011;56152;49.996;18.980;2022-09-01T06:27:52;3.67;;;2.25;;
43646;SDS011;56152;49.996;18.980;2022-09-01T06:32:58;2.92;;;2.20;;
43646;SDS011;56152;49.996;18.980;2022-09-01T06:38:01;5.90;;;2.47;;
43646;SDS011;56152;49.996;18.980;2022-09-01T06:43:06;4.53;;;2.70;;
43646;SDS011;56152;49.996;18.980;2022-09-01T06:48:11;5.55;;;2.13;;
43646;SDS011;56152;49.996;18.980;2022-09-01T06:53:17;4.28;;;2.08;;
43646;SDS011;56152;49.996;18.980;2022-09-01T06:58:20;3.10;;;2.15;;
43646;SDS011;56152;49.996;18.980;2022-09-01T07:03:30;3.53;;;2.22;;
43646;SDS011;56152;49.996;18.980;2022-09-01T07:08:33;6.72;;;1.83;;
43646;SDS011;56152;49.996;18.980;2022-09-01T07:13:42;3.42;;;1.70;;
43646;SDS011;56152;49.996;18.980;2022-09-01T07:18:45;6.30;;;1.90;;
43646;SDS011;56152;49.996;18.980;2022-09-01T07:23:47;9.45;;;2.10;;
43646;SDS011;56152;49.996;18.980;2022-09-01T07:28:50;4.13;;;1.85;;
43646;SDS011;56152;49.996;18.980;2022-09-01T07:33:56;4.50;;;1.75;;
43646;SDS011;56152;49.996;18.980;2022-09-01T07:38:59;2.42;;;1.60;;
43646;SDS011;56152;49.996;18.980;2022-09-01T07:44:02;4.75;;;1.45;;
43646;SDS011;56152;49.996;18.980;2022-09-01T07:49:10;6.63;;;1.40;;
43646;SDS011;56152;49.996;18.980;2022-09-01T07:54:13;3.13;;;1.75;;
43646;SDS011;56152;49.996;18.980;2022-09-01T07:59:20;4.50;;;1.85;;
43646;SDS011;56152;49.996;18.980;2022-09-01T08:04:24;4.43;;;1.98;;
43646;SDS011;56152;49.996;18.980;2022-09-01T08:09:26;5.85;;;1.70;;
43646;SDS011;56152;49.996;18.980;2022-09-01T08:14:29;4.28;;;1.25;;
43646;SDS011;56152;49.996;18.980;2022-09-01T08:19:35;4.43;;;1.60;;
43646;SDS011;56152;49.996;18.980;2022-09-01T08:24:38;5.90;;;1.40;;
43646;SDS011;56152;49.996;18.980;2022-09-01T08:29:40;3.83;;;1.23;;
43646;SDS011;56152;49.996;18.980;2022-09-01T08:34:44;3.70;;;2.10;;
43646;SDS011;56152;49.996;18.980;2022-09-01T08:39:48;4.45;;;2.08;;
43646;SDS011;56152;49.996;18.980;2022-09-01T08:44:51;2.60;;;1.50;;
43646;SDS011;56152;49.996;18.980;2022-09-01T08:50:01;6.38;;;1.40;;
43646;SDS011;56152;49.996;18.980;2022-09-01T08:55:07;8.20;;;1.60;;
43646;SDS011;56152;49.996;18.980;2022-09-01T09:00:16;2.63;;;1.63;;
43646;SDS011;56152;49.996;18.980;2022-09-01T09:05:29;3.40;;;1.90;;
43646;SDS011;56152;49.996;18.980;2022-09-01T11:09:03;4.72;;;1.40;;
43646;SDS011;56152;49.996;18.980;2022-09-01T11:14:15;5.30;;;1.60;;
43646;SDS011;56152;49.996;18.980;2022-09-01T11:19:32;4.90;;;1.50;;
43646;SDS011;56152;49.996;18.980;2022-09-01T11:29:49;2.30;;;1.00;;
43646;SDS011;56152;49.996;18.980;2022-09-01T11:40:19;10.35;;;2.72;;
43646;SDS011;56152;49.996;18.980;2022-09-01T11:45:24;4.68;;;1.52;;
43646;SDS011;56152;49.996;18.980;2022-09-01T11:50:35;3.20;;;1.35;;
43646;SDS011;56152;49.996;18.980;2022-09-01T11:55:39;1.90;;;1.17;;
43646;SDS011;56152;49.996;18.980;2022-09-01T12:00:43;3.28;;;1.98;;
43646;SDS011;56152;49.996;18.980;2022-09-01T12:06:06;5.05;;;1.77;;
43646;SDS011;56152;49.996;18.980;2022-09-01T12:11:26;8.10;;;1.70;;
43646;SDS011;56152;49.996;18.980;2022-09-01T12:16:32;3.60;;;1.30;;
43646;SDS011;56152;49.996;18.980;2022-09-01T12:21:40;3.33;;;1.10;;
43646;SDS011;56152;49.996;18.980;2022-09-01T12:26:43;1.55;;;0.82;;
43646;SDS011;56152;49.996;18.980;2022-09-01T12:31:51;2.50;;;1.27;;
43646;SDS011;56152;49.996;18.980;2022-09-01T12:37:04;4.57;;;1.20;;
43646;SDS011;56152;49.996;18.980;2022-09-01T12:42:09;4.20;;;1.15;;
43646;SDS011;56152;49.996;18.980;2022-09-01T12:52:50;3.55;;;1.05;;
43646;SDS011;56152;49.996;18.980;2022-09-01T12:57:54;4.30;;;1.13;;
43646;SDS011;56152;49.996;18.980;2022-09-01T13:03:04;3.97;;;1.30;;
43646;SDS011;56152;49.996;18.980;2022-09-01T13:08:16;4.38;;;1.48;;
43646;SDS011;56152;49.996;18.980;2022-09-01T13:13:19;1.90;;;1.02;;
43646;SDS011;56152;49.996;18.980;2022-09-01T13:18:25;2.30;;;1.23;;
43646;SDS011;56152;49.996;18.980;2022-09-01T13:23:31;4.47;;;1.60;;
43646;SDS011;56152;49.996;18.980;2022-09-01T13:28:33;1.95;;;1.45;;
43646;SDS011;56152;49.996;18.980;2022-09-01T13:33:41;4.53;;;1.63;;
43646;SDS011;56152;49.996;18.980;2022-09-01T13:38:47;3.80;;;1.27;;
43646;SDS011;56152;49.996;18.980;2022-09-01T13:43:51;3.72;;;1.50;;
43646;SDS011;56152;49.996;18.980;2022-09-01T13:48:55;2.70;;;1.50;;
43646;SDS011;56152;49.996;18.980;2022-09-01T13:53:59;4.25;;;1.40;;
43646;SDS011;56152;49.996;18.980;2022-09-01T13:59:15;2.83;;;2.00;;
43646;SDS011;56152;49.996;18.980;2022-09-01T14:04:17;3.08;;;1.80;;
43646;SDS011;56152;49.996;18.980;2022-09-01T14:09:24;3.92;;;1.38;;
43646;SDS011;56152;49.996;18.980;2022-09-01T14:14:26;2.10;;;1.33;;
43646;SDS011;56152;49.996;18.980;2022-09-01T14:19:35;1.05;;;0.90;;
43646;SDS011;56152;49.996;18.980;2022-09-01T14:24:51;1.48;;;1.10;;
43646;SDS011;56152;49.996;18.980;2022-09-01T14:30:10;2.15;;;1.20;;
43646;SDS011;56152;49.996;18.980;2022-09-01T14:35:15;1.30;;;0.98;;
43646;SDS011;56152;49.996;18.980;2022-09-01T14:40:28;5.93;;;1.83;;
43646;SDS011;56152;49.996;18.980;2022-09-01T14:45:36;1.92;;;1.25;;
43646;SDS011;56152;49.996;18.980;2022-09-01T14:50:40;1.73;;;1.00;;
43646;SDS011;56152;49.996;18.980;2022-09-01T14:55:45;1.63;;;1.15;;
43646;SDS011;56152;49.996;18.980;2022-09-01T15:00:47;1.88;;;1.10;;
43646;SDS011;56152;49.996;18.980;2022-09-01T15:05:55;4.38;;;1.40;;
43646;SDS011;56152;49.996;18.980;2022-09-01T15:10:59;4.55;;;1.70;;
43646;SDS011;56152;49.996;18.980;2022-09-01T15:16:04;2.20;;;0.90;;
43646;SDS011;56152;49.996;18.980;2022-09-01T15:21:19;3.80;;;1.50;;
43646;SDS011;56152;49.996;18.980;2022-09-01T15:26:24;4.05;;;1.50;;
43646;SDS011;56152;49.996;18.980;2022-09-01T15:31:32;2.25;;;1.17;;
43646;SDS011;56152;49.996;18.980;2022-09-01T15:36:34;1.75;;;1.25;;
43646;SDS011;56152;49.996;18.980;2022-09-01T15:41:42;1.10;;;1.00;;
43646;SDS011;56152;49.996;18.980;2022-09-01T15:46:45;6.28;;;1.90;;
43646;SDS011;56152;49.996;18.980;2022-09-01T15:51:50;2.50;;;1.30;;
43646;SDS011;56152;49.996;18.980;2022-09-01T15:56:57;7.47;;;3.08;;
43646;SDS011;56152;49.996;18.980;2022-09-01T16:02:02;8.07;;;1.85;;
43646;SDS011;56152;49.996;18.980;2022-09-01T16:07:05;2.30;;;1.20;;
43646;SDS011;56152;49.996;18.980;2022-09-01T16:12:09;3.60;;;1.80;;
43646;SDS011;56152;49.996;18.980;2022-09-01T16:17:12;6.53;;;2.40;;
43646;SDS011;56152;49.996;18.980;2022-09-01T16:22:20;4.30;;;1.85;;
43646;SDS011;56152;49.996;18.980;2022-09-01T16:27:30;2.40;;;1.30;;
43646;SDS011;56152;49.996;18.980;2022-09-01T16:32:35;3.13;;;1.97;;
43646;SDS011;56152;49.996;18.980;2022-09-01T16:37:41;3.03;;;1.60;;
43646;SDS011;56152;49.996;18.980;2022-09-01T16:42:54;10.55;;;2.00;;
43646;SDS011;56152;49.996;18.980;2022-09-01T16:48:05;5.10;;;1.85;;
43646;SDS011;56152;49.996;18.980;2022-09-01T16:53:19;2.08;;;1.58;;
43646;SDS011;56152;49.996;18.980;2022-09-01T16:58:35;4.07;;;2.00;;
43646;SDS011;56152;49.996;18.980;2022-09-01T17:03:52;4.65;;;1.98;;
43646;SDS011;56152;49.996;18.980;2022-09-01T17:09:09;2.40;;;1.70;;
43646;SDS011;56152;49.996;18.980;2022-09-01T17:14:21;4.40;;;2.50;;
43646;SDS011;56152;49.996;18.980;2022-09-01T17:19:39;8.07;;;3.20;;
43646;SDS011;56152;49.996;18.980;2022-09-01T17:24:42;5.50;;;3.03;;
43646;SDS011;56152;49.996;18.980;2022-09-01T17:29:48;6.22;;;2.63;;
43646;SDS011;56152;49.996;18.980;2022-09-01T17:34:57;5.95;;;3.50;;
43646;SDS011;56152;49.996;18.980;2022-09-01T17:40:18;12.15;;;7.63;;
43646;SDS011;56152;49.996;18.980;2022-09-01T17:45:29;8.32;;;6.10;;
43646;SDS011;56152;49.996;18.980;2022-09-01T17:50:47;10.18;;;6.18;;
43646;SDS011;56152;49.996;18.980;2022-09-01T17:55:56;12.77;;;7.53;;
43646;SDS011;56152;49.996;18.980;2022-09-01T18:01:05;18.17;;;8.30;;
43646;SDS011;56152;49.996;18.980;2022-09-01T18:06:17;12.95;;;7.10;;
43646;SDS011;56152;49.996;18.980;2022-09-01T18:11:32;13.70;;;8.32;;
43646;SDS011;56152;49.996;18.980;2022-09-01T18:16:46;11.75;;;6.90;;
43646;SDS011;56152;49.996;18.980;2022-09-01T18:21:59;14.07;;;8.23;;
43646;SDS011;56152;49.996;18.980;2022-09-01T18:27:07;18.00;;;7.35;;
43646;SDS011;56152;49.996;18.980;2022-09-01T18:32:17;13.38;;;6.60;;
43646;SDS011;56152;49.996;18.980;2022-09-01T18:37:31;16.88;;;7.80;;
43646;SDS011;56152;49.996;18.980;2022-09-01T18:42:42;20.58;;;10.50;;
43646;SDS011;56152;49.996;18.980;2022-09-01T18:47:57;12.52;;;5.28;;
43646;SDS011;56152;49.996;18.980;2022-09-01T18:53:11;6.13;;;3.60;;
43646;SDS011;56152;49.996;18.980;2022-09-01T18:58:40;6.57;;;3.28;;
43646;SDS011;56152;49.996;18.980;2022-09-01T19:03:55;7.10;;;3.00;;
43646;SDS011;56152;49.996;18.980;2022-09-01T19:09:08;5.90;;;2.38;;
43646;SDS011;56152;49.996;18.980;2022-09-01T19:14:18;6.28;;;2.55;;
43646;SDS011;56152;49.996;18.980;2022-09-01T19:19:38;3.97;;;2.28;;
43646;SDS011;56152;49.996;18.980;2022-09-01T19:24:52;6.53;;;2.40;;
43646;SDS011;56152;49.996;18.980;2022-09-01T19:30:20;4.03;;;2.10;;
43646;SDS011;56152;49.996;18.980;2022-09-01T19:35:23;7.30;;;2.22;;
43646;SDS011;56152;49.996;18.980;2022-09-01T19:40:29;10.07;;;3.70;;
43646;SDS011;56152;49.996;18.980;2022-09-01T19:45:37;16.27;;;4.75;;
43646;SDS011;56152;49.996;18.980;2022-09-01T19:50:54;19.85;;;4.75;;
43646;SDS011;56152;49.996;18.980;2022-09-01T19:56:03;18.65;;;5.63;;
43646;SDS011;56152;49.996;18.980;2022-09-01T20:01:09;25.83;;;6.32;;
43646;SDS011;56152;49.996;18.980;2022-09-01T20:06:17;19.42;;;5.78;;
43646;SDS011;56152;49.996;18.980;2022-09-01T20:11:34;13.18;;;4.85;;
43646;SDS011;56152;49.996;18.980;2022-09-01T20:16:43;11.27;;;5.38;;
43646;SDS011;56152;49.996;18.980;2022-09-01T20:21:54;11.45;;;4.35;;
43646;SDS011;56152;49.996;18.980;2022-09-01T20:27:09;8.02;;;3.95;;
43646;SDS011;56152;49.996;18.980;2022-09-01T20:32:22;11.15;;;4.85;;
43646;SDS011;56152;49.996;18.980;2022-09-01T20:37:41;6.82;;;2.95;;
43646;SDS011;56152;49.996;18.980;2022-09-01T20:43:06;6.63;;;2.92;;
43646;SDS011;56152;49.996;18.980;2022-09-01T20:48:25;7.55;;;3.30;;
43646;SDS011;56152;49.996;18.980;2022-09-01T20:53:38;7.57;;;4.03;;
43646;SDS011;56152;49.996;18.980;2022-09-01T20:59:01;7.57;;;3.72;;
43646;SDS011;56152;49.996;18.980;2022-09-01T21:09:17;7.15;;;3.60;;
43646;SDS011;56152;49.996;18.980;2022-09-01T21:14:34;6.97;;;3.22;;
43646;SDS011;56152;49.996;18.980;2022-09-01T21:19:47;8.55;;;3.65;;
43646;SDS011;56152;49.996;18.980;2022-09-01T21:25:06;6.18;;;2.78;;
43646;SDS011;56152;49.996;18.980;2022-09-01T21:30:10;4.88;;;3.33;;
43646;SDS011;56152;49.996;18.980;2022-09-01T21:35:14;11.18;;;4.75;;
43646;SDS011;56152;49.996;18.980;2022-09-01T21:40:23;7.85;;;4.13;;
43646;SDS011;56152;49.996;18.980;2022-09-01T21:45:26;10.93;;;5.18;;
43646;SDS011;56152;49.996;18.980;2022-09-01T21:50:31;11.15;;;5.18;;
43646;SDS011;56152;49.996;18.980;2022-09-01T21:55:35;16.65;;;5.32;;
43646;SDS011;56152;49.996;18.980;2022-09-01T22:00:38;13.65;;;5.28;;
43646;SDS011;56152;49.996;18.980;2022-09-01T22:05:42;10.10;;;5.13;;
43646;SDS011;56152;49.996;18.980;2022-09-01T22:10:47;8.65;;;4.65;;
43646;SDS011;56152;49.996;18.980;2022-09-01T22:15:52;6.28;;;3.88;;
43646;SDS011;56152;49.996;18.980;2022-09-01T22:21:02;16.83;;;3.85;;
43646;SDS011;56152;49.996;18.980;2022-09-01T22:26:08;9.32;;;4.85;;
43646;SDS011;56152;49.996;18.980;2022-09-01T22:31:19;9.93;;;4.13;;
43646;SDS011;56152;49.996;18.980;2022-09-01T22:41:52;10.07;;;3.88;;
43646;SDS011;56152;49.996;18.980;2022-09-01T22:47:01;8.23;;;4.25;;
43646;SDS011;56152;49.996;18.980;2022-09-01T22:52:04;7.25;;;3.78;;
43646;SDS011;56152;49.996;18.980;2022-09-01T22:57:13;6.60;;;3.95;;
43646;SDS011;56152;49.996;18.980;2022-09-01T23:02:16;7.68;;;3.50;;
43646;SDS011;56152;49.996;18.980;2022-09-01T23:07:33;9.20;;;3.97;;
43646;SDS011;56152;49.996;18.980;2022-09-01T23:12:38;7.55;;;3.30;;
43646;SDS011;56152;49.996;18.980;2022-09-01T23:23:12;7.25;;;4.45;;
43646;SDS011;56152;49.996;18.980;2022-09-01T23:28:23;8.57;;;3.70;;
43646;SDS011;56152;49.996;18.980;2022-09-01T23:33:25;8.07;;;4.05;;
43646;SDS011;56152;49.996;18.980;2022-09-01T23:43:59;9.43;;;4.00;;
43646;SDS011;56152;49.996;18.980;2022-09-01T23:49:11;11.05;;;5.97;;
43646;SDS011;56152;49.996;18.980;2022-09-01T23:54:14;10.30;;;3.33;;
43646;SDS011;56152;49.996;18.980;2022-09-01T23:59:17;10.93;;;4.30;;
